Time;durP1;ratioP1;P1;durP2;ratioP2;P2;SDS_P1;SDS_P2;PMS_P1;PMS_P2;Temp;Humidity;BMP_temperature;BMP_pressure;BME280_temperature;BME280_humidity;BME280_pressure;Samples;Min_cycle;Max_cycle;Signal;HPM_P1;HPM_P2
2023/06/22 00:00:34;;;;;;;11.20;6.53;;;;;;;18.22;85.42;96135.28;2106084;28;20040;-56
2023/06/22 00:01:35;;;;;;;16.42;6.40;;;;;;;18.21;85.41;96141.50;2105475;28;20483;-56
2023/06/22 00:02:36;;;;;;;10.50;6.20;;;;;;;18.22;85.32;96127.41;2114717;28;20486;-57
2023/06/22 00:03:37;;;;;;;14.75;6.47;;;;;;;18.24;85.28;96122.88;2114759;28;20066;-56
2023/06/22 00:04:38;;;;;;;13.05;6.93;;;;;;;18.25;85.51;96124.53;2115125;28;20044;-56
2023/06/22 00:05:39;;;;;;;10.85;6.38;;;;;;;18.24;85.08;96125.50;2115278;28;20079;-57
2023/06/22 00:06:40;;;;;;;14.95;6.95;;;;;;;18.22;85.23;96128.25;2114612;28;20475;-56
2023/06/22 00:07:42;;;;;;;12.77;6.45;;;;;;;18.25;84.80;96128.00;2115671;28;20054;-56
2023/06/22 00:08:43;;;;;;;12.98;6.53;;;;;;;18.26;85.20;96129.69;2114291;28;20051;-56
2023/06/22 00:09:44;;;;;;;10.10;6.88;;;;;;;18.26;84.81;96139.38;2114563;28;20047;-56
2023/06/22 00:10:45;;;;;;;15.05;6.22;;;;;;;18.29;84.98;96141.78;2106412;28;20051;-56
2023/06/22 00:11:46;;;;;;;16.23;6.60;;;;;;;18.27;84.40;96133.97;2105991;28;20059;-56
2023/06/22 00:12:48;;;;;;;14.65;6.63;;;;;;;18.25;84.53;96138.50;2114636;28;20075;-55
2023/06/22 00:13:50;;;;;;;11.82;6.50;;;;;;;18.22;84.59;96133.50;2114674;28;20052;-56
2023/06/22 00:14:51;;;;;;;10.07;6.30;;;;;;;18.23;84.69;96129.94;2115204;28;20047;-55
2023/06/22 00:15:53;;;;;;;10.00;6.28;;;;;;;18.24;84.70;96126.34;2115594;28;20427;-56
2023/06/22 00:16:55;;;;;;;15.10;6.93;;;;;;;18.24;85.29;96133.38;2115296;28;20047;-55
2023/06/22 00:17:57;;;;;;;10.73;6.38;;;;;;;18.20;84.81;96124.91;2114085;28;20096;-56
2023/06/22 00:19:00;;;;;;;11.60;6.07;;;;;;;18.18;84.68;96125.97;2114198;28;20479;-57
2023/06/22 00:20:01;;;;;;;12.07;6.57;;;;;;;18.19;85.14;96131.09;2106251;28;20054;-56
2023/06/22 00:21:02;;;;;;;10.77;6.18;;;;;;;18.10;84.88;96123.94;2105638;28;20079;-56
2023/06/22 00:22:03;;;;;;;12.57;6.90;;;;;;;18.09;84.90;96127.47;2115445;28;20059;-56
2023/06/22 00:23:08;;;;;;;13.00;7.38;;;;;;;18.16;85.60;96136.59;2115293;28;20066;-56
2023/06/22 00:24:09;;;;;;;12.18;6.07;;;;;;;18.15;85.43;96148.06;2115413;28;20035;-56
2023/06/22 00:25:10;;;;;;;10.68;7.00;;;;;;;18.17;84.88;96142.69;2114480;28;20486;-56
2023/06/22 00:26:11;;;;;;;13.02;6.55;;;;;;;18.14;85.17;96143.75;2114919;28;20171;-56
2023/06/22 00:27:12;;;;;;;15.35;6.57;;;;;;;18.12;85.50;96143.03;2115287;28;20095;-56
2023/06/22 00:28:13;;;;;;;15.05;7.07;;;;;;;18.10;85.96;96144.13;2105773;28;20048;-56
2023/06/22 00:29:14;;;;;;;12.43;6.65;;;;;;;17.98;85.78;96128.28;2106343;28;20055;-56
2023/06/22 00:30:16;;;;;;;11.43;6.75;;;;;;;17.97;85.30;96117.91;2114624;28;20048;-56
2023/06/22 00:31:17;;;;;;;10.25;6.78;;;;;;;18.01;86.01;96137.72;2114567;28;20071;-56
2023/06/22 00:32:18;;;;;;;12.45;6.20;;;;;;;17.99;86.27;96144.88;2105436;28;20437;-56
2023/06/22 00:33:22;;;;;;;10.40;6.65;;;;;;;17.99;85.58;96142.25;2105369;28;20067;-56
2023/06/22 00:34:23;;;;;;;13.15;6.18;;;;;;;18.02;85.55;96142.06;2115425;28;20107;-56
2023/06/22 00:35:28;;;;;;;14.02;6.90;;;;;;;18.01;85.45;96137.72;2114581;28;20170;-56
2023/06/22 00:36:29;;;;;;;12.52;6.40;;;;;;;17.99;85.97;96142.25;2115064;28;20051;-56
2023/06/22 00:37:31;;;;;;;14.57;6.90;;;;;;;17.96;86.61;96139.88;2105914;28;20515;-56
2023/06/22 00:38:34;;;;;;;10.80;6.65;;;;;;;17.94;85.92;96144.41;2105578;28;20055;-56
2023/06/22 00:39:36;;;;;;;14.40;7.03;;;;;;;17.92;86.42;96143.69;2105646;28;20063;-56
2023/06/22 00:40:37;;;;;;;14.68;6.85;;;;;;;17.89;86.42;96152.63;2105958;28;20059;-57
2023/06/22 00:41:38;;;;;;;13.35;6.93;;;;;;;17.87;86.07;96143.19;2105653;28;20171;-56
2023/06/22 00:42:40;;;;;;;15.07;6.82;;;;;;;17.75;86.22;96124.72;2106179;28;20442;-57
2023/06/22 00:43:42;;;;;;;14.52;6.65;;;;;;;17.80;86.30;96140.16;2114396;28;20070;-56
2023/06/22 00:44:44;;;;;;;9.68;6.30;;;;;;;17.79;86.88;96130.63;2105871;28;20040;-57
2023/06/22 00:45:45;;;;;;;12.57;7.07;;;;;;;17.66;87.11;96120.13;2105268;28;20502;-57
2023/06/22 00:46:46;;;;;;;13.65;6.78;;;;;;;17.75;87.80;96131.75;2097527;28;20041;-56
2023/06/22 00:47:48;;;;;;;13.82;6.75;;;;;;;17.74;87.34;96128.28;2097822;28;20048;-57
2023/06/22 00:48:49;;;;;;;12.40;6.72;;;;;;;17.69;87.52;96119.91;2089298;28;20052;-56
2023/06/22 00:49:51;;;;;;;9.82;6.07;;;;;;;17.70;87.36;96124.22;2089448;28;20063;-57
2023/06/22 00:50:55;;;;;;;13.88;6.45;;;;;;;17.69;87.90;96121.69;2106189;28;20035;-56
2023/06/22 00:51:58;;;;;;;11.32;6.93;;;;;;;17.72;87.85;96121.47;2105610;28;20052;-56
2023/06/22 00:53:08;;;;;;;11.68;6.57;;;;;;;17.70;87.41;96116.34;2096815;28;20056;-57
2023/06/22 00:54:09;;;;;;;10.80;5.97;;;;;;;17.71;87.80;96112.75;2098281;28;20056;-56
2023/06/22 00:55:10;;;;;;;11.10;5.90;;;;;;;17.61;88.17;96096.00;2096814;28;20048;-56
2023/06/22 00:56:12;;;;;;;11.95;6.65;;;;;;;17.69;87.58;96104.16;2105826;28;20059;-56
2023/06/22 00:57:15;;;;;;;13.93;6.18;;;;;;;17.71;87.90;96112.75;2114414;28;20078;-56
2023/06/22 00:58:17;;;;;;;12.35;6.40;;;;;;;17.71;86.94;96097.00;2114106;28;20055;-56
2023/06/22 00:59:18;;;;;;;13.07;5.78;;;;;;;17.71;86.99;96104.06;2096756;28;20049;-56
2023/06/22 01:00:20;;;;;;;15.15;7.00;;;;;;;17.64;87.22;96094.00;2096887;28;20056;-56
2023/06/22 01:01:23;;;;;;;17.05;6.35;;;;;;;17.68;87.45;96102.50;2105213;28;20047;-56
2023/06/22 01:02:24;;;;;;;10.32;6.22;;;;;;;17.61;87.67;96085.50;2106218;28;20533;-56
2023/06/22 01:03:26;;;;;;;11.13;6.30;;;;;;;17.69;86.75;96101.53;2114129;28;20055;-56
2023/06/22 01:04:35;;;;;;;11.32;6.20;;;;;;;17.65;87.30;96092.22;2105240;28;20092;-56
2023/06/22 01:05:36;;;;;;;11.88;6.00;;;;;;;17.61;87.21;96096.00;2107129;28;20458;-56
2023/06/22 01:07:01;;;;;;;10.48;6.28;;;;;;;17.70;86.48;96113.72;2114711;28;20398;-56
2023/06/22 01:08:38;;;;;;;11.13;6.55;;;;;;;17.68;86.64;96112.16;2097553;28;20132;-56
2023/06/22 01:09:53;;;;;;;9.63;6.60;;;;;;;17.67;86.56;96119.22;2099295;28;20126;-56
2023/06/22 01:10:58;;;;;;;14.65;6.70;;;;;;;17.64;86.52;96116.78;2093911;28;20052;-56
2023/06/22 01:12:01;;;;;;;11.05;5.78;;;;;;;17.66;86.84;96108.81;2099650;28;20388;-56
2023/06/22 01:13:23;;;;;;;12.95;6.43;;;;;;;17.62;86.14;96100.31;2089288;28;20049;-57
2023/06/22 01:14:30;;;;;;;11.35;5.88;;;;;;;17.71;86.55;96110.13;2087694;28;20082;-57
2023/06/22 01:15:34;;;;;;;11.15;6.07;;;;;;;17.69;85.79;96114.66;2097019;28;20093;-56
2023/06/22 01:16:40;;;;;;;12.98;6.38;;;;;;;17.61;86.30;96103.88;2090117;28;20056;-56
2023/06/22 01:17:42;;;;;;;12.60;6.55;;;;;;;17.62;86.27;96106.41;2089700;28;20049;-56
2023/06/22 01:18:45;;;;;;;9.52;5.28;;;;;;;17.64;85.79;96116.78;2082082;28;20045;-56
2023/06/22 01:19:47;;;;;;;14.63;6.68;;;;;;;17.64;86.35;96114.16;2097929;28;20052;-56
2023/06/22 01:20:50;;;;;;;10.07;6.00;;;;;;;17.66;86.39;96116.69;2088438;28;20060;-56
2023/06/22 01:21:51;;;;;;;13.02;6.30;;;;;;;17.67;86.14;96119.22;2073576;28;20061;-56
2023/06/22 01:23:12;;;;;;;12.38;6.05;;;;;;;17.72;86.16;96113.59;2073149;28;20351;-56
2023/06/22 01:24:23;;;;;;;11.60;6.03;;;;;;;17.73;86.28;96121.38;2088910;28;20053;-56
2023/06/22 01:25:31;;;;;;;16.75;6.63;;;;;;;17.67;85.63;96108.69;2096663;28;20097;-56
2023/06/22 01:27:21;;;;;;;12.65;5.97;;;;;;;17.73;86.17;96126.63;2091205;28;20049;-56
2023/06/22 01:28:31;;;;;;;14.20;5.60;;;;;;;17.73;86.01;96126.63;2086762;28;20091;-56
2023/06/22 01:29:32;;;;;;;13.63;5.93;;;;;;;17.72;85.21;96121.47;2095978;28;20396;-56
2023/06/22 01:30:33;;;;;;;10.48;5.80;;;;;;;17.70;85.11;96121.59;2105333;28;20060;-56
2023/06/22 01:31:35;;;;;;;12.57;6.28;;;;;;;17.73;85.82;96120.53;2089122;28;20060;-56
2023/06/22 01:32:37;;;;;;;9.80;5.78;;;;;;;17.73;85.62;96129.25;2089019;28;20075;-56
2023/06/22 01:33:40;;;;;;;12.38;6.25;;;;;;;17.63;85.43;96120.38;2080081;28;20057;-56
2023/06/22 01:34:41;;;;;;;13.32;6.65;;;;;;;17.74;85.52;96130.91;2081429;28;20057;-56
2023/06/22 01:35:43;;;;;;;10.60;5.57;;;;;;;17.70;85.38;96131.28;2105864;28;20044;-56
2023/06/22 01:36:44;;;;;;;12.27;6.10;;;;;;;17.69;84.80;96132.22;2089146;28;20037;-56
2023/06/22 01:37:45;;;;;;;11.70;5.88;;;;;;;17.67;85.72;96137.59;2080943;28;20045;-56
2023/06/22 01:38:46;;;;;;;10.38;5.43;;;;;;;17.63;85.28;96142.22;2089157;28;20045;-56
2023/06/22 01:39:47;;;;;;;9.18;5.45;;;;;;;17.62;86.13;96142.34;2088110;28;20049;-56
2023/06/22 01:40:50;;;;;;;9.95;5.50;;;;;;;17.58;85.84;96138.25;2089036;28;20436;-56
2023/06/22 01:41:52;;;;;;;10.65;5.70;;;;;;;17.55;86.01;96143.72;2080856;28;20057;-56
2023/06/22 01:42:53;;;;;;;10.82;5.78;;;;;;;17.53;86.71;96145.63;2080213;28;20056;-56
2023/06/22 01:43:54;;;;;;;10.38;5.88;;;;;;;17.51;86.26;96140.50;2089196;28;20119;-56
2023/06/22 01:44:55;;;;;;;13.05;6.00;;;;;;;17.47;86.69;96131.16;2089002;28;20048;-56
2023/06/22 01:45:57;;;;;;;13.35;5.88;;;;;;;17.50;86.28;96148.47;2080441;28;20056;-56
2023/06/22 01:46:58;;;;;;;11.48;5.85;;;;;;;17.48;86.71;96147.72;2096899;28;20059;-56
2023/06/22 01:47:59;;;;;;;11.82;5.95;;;;;;;17.46;86.75;96149.66;2089245;28;20041;-56
2023/06/22 01:49:02;;;;;;;13.88;5.82;;;;;;;17.46;87.10;96147.03;2097208;28;20424;-56
2023/06/22 01:50:03;;;;;;;8.52;5.78;;;;;;;17.45;87.72;96153.22;2105765;28;20048;-57
2023/06/22 01:51:04;;;;;;;11.63;6.05;;;;;;;17.44;87.13;96152.38;2104900;28;20051;-56
2023/06/22 01:52:05;;;;;;;10.35;6.10;;;;;;;17.36;87.69;96139.81;2113865;28;20066;-56
2023/06/22 01:53:07;;;;;;;12.10;6.10;;;;;;;17.32;87.85;96137.50;2096677;28;20412;-56
2023/06/22 01:54:08;;;;;;;14.25;6.40;;;;;;;17.39;87.41;96144.81;2096656;28;20053;-56
2023/06/22 01:55:09;;;;;;;11.68;6.00;;;;;;;17.37;87.67;96143.25;2105210;28;20423;-56
2023/06/22 01:56:10;;;;;;;11.60;6.10;;;;;;;17.37;87.96;96145.88;2096191;28;20052;-56
2023/06/22 01:57:11;;;;;;;11.75;6.30;;;;;;;17.31;87.66;96136.66;2105477;28;20040;-58
2023/06/22 01:58:12;;;;;;;11.57;6.60;;;;;;;17.32;88.18;96148.00;2089104;28;20049;-58
2023/06/22 01:59:28;;;;;;;15.70;7.43;;;;;;;17.30;88.81;96145.50;2080838;28;20398;-55
2023/06/22 02:00:35;;;;;;;12.50;6.80;;;;;;;17.38;88.70;96152.81;2098663;28;20424;-55
2023/06/22 02:01:43;;;;;;;13.38;6.70;;;;;;;17.40;88.22;96146.53;2105457;28;20479;-58
2023/06/22 02:03:02;;;;;;;13.63;7.25;;;;;;;17.41;88.08;96145.56;2106292;28;20048;-57
2023/06/22 02:04:04;;;;;;;;;;;;;;;17.41;87.98;96148.19;2097128;28;20049;-57
2023/06/22 02:05:06;;;;;;;10.48;6.55;;;;;;;17.40;87.75;96145.66;2090045;28;20351;-57
2023/06/22 02:06:10;;;;;;;13.27;6.97;;;;;;;17.40;87.44;96148.28;2104812;28;20052;-57
2023/06/22 02:07:13;;;;;;;15.45;7.60;;;;;;;17.30;87.38;96135.00;2114034;28;20055;-57
2023/06/22 02:08:20;;;;;;;15.15;7.78;;;;;;;17.34;87.30;96131.19;2105829;28;20044;-57
2023/06/22 02:09:22;;;;;;;13.73;7.63;;;;;;;17.44;87.21;96146.28;2097558;28;20052;-57
2023/06/22 02:10:23;;;;;;;14.55;7.05;;;;;;;17.47;87.55;96140.81;2106581;28;20431;-57
2023/06/22 02:11:24;;;;;;;13.45;7.10;;;;;;;17.45;87.59;96132.22;2098792;28;20056;-58
2023/06/22 02:12:27;;;;;;;12.50;7.07;;;;;;;17.44;86.73;96133.16;2082313;28;20544;-57
2023/06/22 02:13:28;;;;;;;14.02;7.22;;;;;;;17.40;87.05;96136.03;2098782;28;20514;-57
2023/06/22 02:14:29;;;;;;;14.40;7.00;;;;;;;17.47;87.03;96139.03;2089866;28;20056;-57
2023/06/22 02:15:30;;;;;;;12.88;7.53;;;;;;;17.50;87.13;96140.59;2082182;28;20060;-57
2023/06/22 02:16:32;;;;;;;15.35;7.03;;;;;;;17.52;87.40;96138.69;2082316;28;20409;-57
2023/06/22 02:17:33;;;;;;;16.05;8.10;;;;;;;17.42;86.50;96122.75;2090564;28;20049;-57
2023/06/22 02:18:36;;;;;;;13.25;8.10;;;;;;;17.50;86.59;96141.41;2098632;28;20427;-58
2023/06/22 02:19:37;;;;;;;11.25;7.10;;;;;;;17.39;87.05;96123.00;2098867;28;20056;-58
2023/06/22 02:20:38;;;;;;;12.10;7.03;;;;;;;17.49;86.66;96137.13;2098088;28;20064;-57
2023/06/22 02:21:39;;;;;;;12.75;7.13;;;;;;;17.49;87.19;96141.56;2098554;28;20504;-56
2023/06/22 02:22:41;;;;;;;14.20;7.13;;;;;;;17.44;86.96;96131.38;2107138;28;20055;-57
2023/06/22 02:23:45;;;;;;;13.23;6.63;;;;;;;17.40;86.50;96122.03;2115536;28;20252;-57
2023/06/22 02:24:46;;;;;;;13.93;7.72;;;;;;;17.50;86.75;96132.72;2106268;28;20378;-57
2023/06/22 02:25:48;;;;;;;13.52;7.70;;;;;;;17.49;87.08;96139.75;2098713;28;20048;-57
2023/06/22 02:26:49;;;;;;;13.48;6.95;;;;;;;17.40;86.88;96120.28;2097648;28;20045;-57
2023/06/22 02:27:50;;;;;;;13.95;7.22;;;;;;;17.45;86.52;96133.03;2090423;28;20044;-57
2023/06/22 02:28:52;;;;;;;12.75;7.13;;;;;;;17.44;87.44;96136.63;2106445;28;20059;-58
2023/06/22 02:29:53;;;;;;;12.43;6.95;;;;;;;17.40;87.62;96130.78;2115382;28;20044;-57
2023/06/22 02:30:54;;;;;;;11.63;6.78;;;;;;;17.39;87.44;96131.69;2116191;28;20040;-56
2023/06/22 02:31:55;;;;;;;14.57;7.28;;;;;;;17.39;87.33;96128.25;2115555;28;20059;-57
2023/06/22 02:32:59;;;;;;;12.40;6.70;;;;;;;17.38;86.93;96130.03;2115496;28;20078;-57
2023/06/22 02:34:00;;;;;;;13.93;6.90;;;;;;;17.38;87.07;96131.81;2106483;28;20419;-57
2023/06/22 02:35:04;;;;;;;13.18;7.28;;;;;;;17.29;87.24;96121.97;2106556;28;20063;-57
2023/06/22 02:36:08;;;;;;;16.80;7.85;;;;;;;17.35;87.57;96135.50;2115513;28;20062;-57
2023/06/22 02:37:12;;;;;;;14.38;7.43;;;;;;;17.30;87.97;96136.78;2107219;28;20044;-58
2023/06/22 02:38:14;;;;;;;15.50;7.18;;;;;;;17.25;87.44;96141.53;2090993;28;20049;-57
2023/06/22 02:39:17;;;;;;;15.57;6.78;;;;;;;17.25;88.29;96141.53;2091517;28;20041;-57
2023/06/22 02:40:19;;;;;;;11.95;6.88;;;;;;;17.24;88.29;96143.31;2099227;28;20403;-58
2023/06/22 02:41:20;;;;;;;14.30;7.00;;;;;;;17.22;88.63;96137.34;2106460;28;20059;-58
2023/06/22 02:42:21;;;;;;;12.40;7.38;;;;;;;17.16;88.26;96138.63;2107006;28;20059;-57
2023/06/22 02:43:23;;;;;;;15.05;6.70;;;;;;;17.19;88.84;96137.56;2097902;28;20075;-57
2023/06/22 02:44:24;;;;;;;13.70;7.10;;;;;;;17.16;88.42;96140.38;2106896;28;20044;-57
2023/06/22 02:45:25;;;;;;;15.60;7.25;;;;;;;17.12;88.36;96141.56;2115329;28;20066;-58
2023/06/22 02:46:27;;;;;;;14.38;6.50;;;;;;;17.03;88.48;96132.56;2106760;28;20435;-57
2023/06/22 02:47:28;;;;;;;12.27;6.68;;;;;;;17.02;88.58;96133.50;2089533;28;20128;-59
2023/06/22 02:48:29;;;;;;;13.73;6.93;;;;;;;16.97;89.03;96136.47;2098041;28;20459;-59
2023/06/22 02:49:30;;;;;;;14.80;8.00;;;;;;;16.96;89.82;96134.75;2116022;28;20032;-59
2023/06/22 02:50:31;;;;;;;13.98;7.63;;;;;;;16.93;89.24;96140.22;2106797;28;20096;-59
2023/06/22 02:51:34;;;;;;;13.15;7.00;;;;;;;16.92;89.39;96135.06;2098623;28;20044;-58
2023/06/22 02:52:35;;;;;;;11.77;7.40;;;;;;;16.90;89.72;96135.19;2098234;28;20059;-59
2023/06/22 02:53:36;;;;;;;19.20;7.53;;;;;;;16.89;89.77;96135.31;2098631;28;20063;-59
2023/06/22 02:54:38;;;;;;;13.73;7.30;;;;;;;16.89;90.09;96141.41;2097733;28;20458;-58
2023/06/22 02:55:39;;;;;;;15.38;7.65;;;;;;;16.88;90.18;96131.84;2098464;28;20059;-59
2023/06/22 02:56:43;;;;;;;15.07;7.70;;;;;;;16.88;90.82;96138.88;2106990;28;20431;-59
2023/06/22 02:57:46;;;;;;;15.18;8.57;;;;;;;16.88;89.87;96128.38;2099085;28;20071;-58
2023/06/22 02:58:47;;;;;;;19.90;8.10;;;;;;;16.89;90.99;96130.91;2106394;28;20079;-58
2023/06/22 02:59:48;;;;;;;14.30;8.57;;;;;;;16.89;90.60;96133.53;2105906;28;20067;-57
2023/06/22 03:00:52;;;;;;;16.35;7.97;;;;;;;16.82;91.03;96116.53;2097805;28;20055;-58
2023/06/22 03:01:53;;;;;;;16.40;8.45;;;;;;;16.86;90.95;96130.28;2098287;28;20059;-58
2023/06/22 03:03:01;;;;;;;13.52;7.53;;;;;;;16.90;90.62;96137.00;2099341;28;20063;-57
2023/06/22 03:04:02;;;;;;;12.30;7.60;;;;;;;16.91;91.28;96138.66;2097874;28;20072;-57
2023/06/22 03:05:04;;;;;;;12.32;8.57;;;;;;;16.92;90.24;96140.31;2106504;28;20075;-58
2023/06/22 03:06:05;;;;;;;15.30;8.70;;;;;;;16.90;91.23;96143.06;2106538;28;20517;-57
2023/06/22 03:07:06;;;;;;;11.95;7.70;;;;;;;16.91;90.82;96152.59;2097919;28;20052;-58
2023/06/22 03:08:08;;;;;;;17.65;7.82;;;;;;;16.91;90.85;96144.75;2098800;28;20053;-57
2023/06/22 03:09:10;;;;;;;14.15;7.88;;;;;;;16.88;90.69;96149.38;2098568;28;20048;-57
2023/06/22 03:10:13;;;;;;;14.00;8.25;;;;;;;16.89;91.00;96146.66;2098422;28;20048;-57
2023/06/22 03:11:14;;;;;;;16.00;7.85;;;;;;;16.89;91.01;96141.41;2098758;28;20048;-57
2023/06/22 03:12:16;;;;;;;16.48;8.40;;;;;;;16.89;90.67;96140.53;2097678;28;20545;-57
2023/06/22 03:13:27;;;;;;;11.75;8.15;;;;;;;16.77;90.41;96116.03;2091295;28;20056;-57
2023/06/22 03:14:28;;;;;;;16.58;8.80;;;;;;;16.89;91.23;96135.31;2099847;28;20071;-57
2023/06/22 03:15:29;;;;;;;19.30;8.75;;;;;;;16.88;90.95;96134.47;2098075;28;20504;-58
2023/06/22 03:16:30;;;;;;;14.65;7.97;;;;;;;16.87;91.15;96145.09;2097728;28;20052;-58
2023/06/22 03:17:33;;;;;;;17.50;7.70;;;;;;;16.85;91.45;96139.94;2097641;28;20052;-58
2023/06/22 03:18:35;;;;;;;14.15;9.15;;;;;;;16.87;91.23;96145.09;2097901;28;20476;-57
2023/06/22 03:19:36;;;;;;;19.27;9.18;;;;;;;16.87;90.95;96138.03;2105700;28;20056;-57
2023/06/22 03:20:37;;;;;;;13.60;8.00;;;;;;;16.88;90.63;96144.97;2106803;28;20044;-57
2023/06/22 03:21:38;;;;;;;16.00;8.60;;;;;;;16.88;91.25;96138.88;2114582;28;20066;-58
2023/06/22 03:22:40;;;;;;;15.63;9.07;;;;;;;16.88;91.12;96138.88;2115646;28;20046;-57
2023/06/22 03:23:42;;;;;;;18.90;8.88;;;;;;;16.89;90.80;96138.78;2115149;28;20418;-58
2023/06/22 03:24:43;;;;;;;20.20;9.50;;;;;;;16.89;91.02;96133.53;2105595;28;20043;-57
2023/06/22 03:25:44;;;;;;;14.45;8.95;;;;;;;16.89;91.46;96130.06;2106573;28;20515;-58
2023/06/22 03:26:46;;;;;;;17.27;9.35;;;;;;;16.90;91.35;96129.97;2115771;28;20043;-58
2023/06/22 03:27:48;;;;;;;16.33;8.57;;;;;;;16.92;91.47;96132.47;2105608;28;20071;-58
2023/06/22 03:28:49;;;;;;;18.05;8.68;;;;;;;16.93;91.17;96131.53;2106469;28;20439;-58
2023/06/22 03:29:50;;;;;;;18.45;8.57;;;;;;;16.85;91.21;96123.38;2098213;28;20058;-58
2023/06/22 03:30:51;;;;;;;15.63;8.65;;;;;;;16.93;91.50;96129.75;2106552;28;20036;-58
2023/06/22 03:31:52;;;;;;;17.92;8.43;;;;;;;16.93;91.26;96128.91;2106561;28;20048;-58
2023/06/22 03:32:54;;;;;;;16.10;9.50;;;;;;;16.92;91.74;96130.69;2097963;28;20123;-57
2023/06/22 03:33:55;;;;;;;15.20;8.95;;;;;;;16.96;91.23;96131.31;2098037;28;20040;-57
2023/06/22 03:34:58;;;;;;;15.77;10.05;;;;;;;16.98;91.44;96140.75;2106579;28;20048;-58
2023/06/22 03:36:00;;;;;;;17.08;8.88;;;;;;;16.92;91.23;96128.06;2106518;28;20044;-58
2023/06/22 03:37:01;;;;;;;18.33;9.32;;;;;;;17.01;91.39;96141.47;2106645;28;20414;-58
2023/06/22 03:38:02;;;;;;;14.85;9.20;;;;;;;16.99;91.54;96141.59;2106841;28;20047;-58
2023/06/22 03:39:05;;;;;;;14.30;9.20;;;;;;;16.97;91.49;96144.34;2097909;28;20059;-58
2023/06/22 03:40:07;;;;;;;15.50;9.15;;;;;;;16.99;90.88;96146.81;2106515;28;20051;-57
2023/06/22 03:41:09;;;;;;;16.95;8.95;;;;;;;16.97;90.92;96148.72;2098330;28;20087;-58
2023/06/22 03:42:10;;;;;;;16.60;9.13;;;;;;;16.97;91.10;96146.94;2098081;28;20435;-58
2023/06/22 03:43:11;;;;;;;13.45;9.15;;;;;;;17.01;91.13;96144.09;2097700;28;20053;-58
2023/06/22 03:44:12;;;;;;;15.95;9.38;;;;;;;17.01;91.90;96146.72;2105738;28;20056;-58
2023/06/22 03:45:14;;;;;;;16.27;9.43;;;;;;;16.93;91.40;96132.38;2106637;28;20048;-58
2023/06/22 03:46:15;;;;;;;12.32;8.73;;;;;;;17.01;91.76;96141.47;2105809;28;20059;-58
2023/06/22 03:47:17;;;;;;;17.38;8.95;;;;;;;17.02;91.58;96136.13;2106370;28;20055;-58
2023/06/22 03:48:19;;;;;;;15.32;9.45;;;;;;;17.04;90.92;96136.03;2105923;28;20056;-58
2023/06/22 03:49:20;;;;;;;17.92;10.02;;;;;;;17.04;91.34;96130.78;2106501;28;20462;-58
2023/06/22 03:50:21;;;;;;;15.48;9.05;;;;;;;17.09;90.79;96136.53;2105788;28;20052;-58
2023/06/22 03:51:22;;;;;;;17.63;9.25;;;;;;;17.12;91.33;96131.06;2115914;28;20047;-58
2023/06/22 03:52:23;;;;;;;15.98;9.80;;;;;;;17.15;91.05;96136.09;2115012;28;20060;-57
2023/06/22 03:53:24;;;;;;;13.50;8.88;;;;;;;17.16;90.31;96129.88;2114826;28;20055;-58
2023/06/22 03:54:25;;;;;;;16.88;8.90;;;;;;;17.19;90.77;96138.41;2115036;28;20051;-58
2023/06/22 03:55:26;;;;;;;14.95;9.30;;;;;;;17.23;90.51;96128.50;2105599;28;20459;-58
2023/06/22 03:56:27;;;;;;;15.95;8.85;;;;;;;17.16;89.93;96128.13;2106166;28;20060;-58
2023/06/22 03:57:29;;;;;;;19.33;9.57;;;;;;;17.16;90.87;96127.25;2114989;28;20051;-58
2023/06/22 03:58:32;;;;;;;17.33;9.00;;;;;;;17.20;90.49;96134.81;2114529;28;20095;-58
2023/06/22 03:59:33;;;;;;;16.55;9.02;;;;;;;17.26;90.76;96140.56;2115063;28;20059;-58
2023/06/22 04:00:34;;;;;;;15.65;8.80;;;;;;;17.26;89.67;96141.41;2105931;28;20444;-58
2023/06/22 04:01:36;;;;;;;15.25;8.93;;;;;;;17.29;90.22;96146.44;2105626;28;20052;-57
2023/06/22 04:02:37;;;;;;;16.58;9.00;;;;;;;17.26;89.90;96140.56;2115524;28;20078;-57
2023/06/22 04:03:39;;;;;;;15.32;8.82;;;;;;;17.24;90.09;96134.59;2114401;28;20067;-58
2023/06/22 04:04:40;;;;;;;14.15;8.55;;;;;;;17.33;90.30;96136.56;2114515;28;20056;-57
2023/06/22 04:05:41;;;;;;;17.08;9.38;;;;;;;17.35;89.78;96146.00;2114794;28;20056;-58
2023/06/22 04:06:42;;;;;;;12.00;8.10;;;;;;;17.38;90.11;96143.16;2114753;28;20446;-57
2023/06/22 04:07:43;;;;;;;14.35;8.75;;;;;;;17.39;89.86;96144.81;2115640;28;20051;-58
2023/06/22 04:08:48;;;;;;;15.75;8.43;;;;;;;17.39;89.41;96142.19;2114679;28;20052;-58
2023/06/22 04:09:49;;;;;;;12.82;8.65;;;;;;;17.45;89.43;96148.78;2115435;28;20040;-58
2023/06/22 04:10:50;;;;;;;15.98;8.35;;;;;;;17.46;88.79;96145.22;2115355;28;20031;-59
2023/06/22 04:11:51;;;;;;;13.68;8.90;;;;;;;17.49;88.82;96150.25;2115537;28;20036;-59
2023/06/22 04:12:53;;;;;;;14.10;8.90;;;;;;;17.52;89.24;96143.94;2115409;28;20416;-58
2023/06/22 04:13:55;;;;;;;13.80;8.65;;;;;;;17.54;88.99;96147.31;2114298;28;20406;-59
2023/06/22 04:14:56;;;;;;;16.42;8.85;;;;;;;17.55;88.92;96138.47;2114596;28;20329;-58
2023/06/22 04:15:58;;;;;;;16.33;8.63;;;;;;;17.59;89.13;96139.94;2115179;28;20043;-58
2023/06/22 04:16:59;;;;;;;15.13;9.80;;;;;;;17.56;88.64;96143.63;2115422;28;20046;-58
2023/06/22 04:18:00;;;;;;;14.05;8.38;;;;;;;17.55;88.40;96149.81;2114697;28;20063;-58
2023/06/22 04:19:01;;;;;;;16.75;9.18;;;;;;;17.58;88.45;96146.94;2115339;28;20363;-58
2023/06/22 04:20:03;;;;;;;11.20;8.43;;;;;;;17.60;88.37;96146.84;2114725;28;20490;-58
2023/06/22 04:21:04;;;;;;;17.40;9.15;;;;;;;17.62;88.13;96145.78;2114422;28;20356;-59
2023/06/22 04:22:07;;;;;;;14.68;8.40;;;;;;;17.61;87.51;96140.63;2114870;28;20059;-59
2023/06/22 04:23:08;;;;;;;18.02;8.70;;;;;;;17.67;87.38;96140.22;2115244;28;20391;-58
2023/06/22 04:24:09;;;;;;;14.85;8.98;;;;;;;17.68;88.12;96141.88;2115287;28;20035;-58
2023/06/22 04:25:10;;;;;;;15.93;8.77;;;;;;;17.72;87.43;96147.72;2115444;28;20040;-58
2023/06/22 04:26:12;;;;;;;15.98;8.90;;;;;;;17.70;87.11;96149.66;2115416;28;20472;-58
2023/06/22 04:27:13;;;;;;;15.10;9.02;;;;;;;17.72;86.92;96137.22;2115251;28;20506;-58
2023/06/22 04:28:14;;;;;;;18.40;8.57;;;;;;;17.74;87.02;96146.66;2114712;28;20056;-58
2023/06/22 04:29:15;;;;;;;14.52;8.52;;;;;;;17.72;86.92;96140.72;2115440;28;20047;-58
2023/06/22 04:30:16;;;;;;;17.15;9.07;;;;;;;17.75;86.90;96143.13;2114565;28;20051;-58
2023/06/22 04:31:20;;;;;;;12.77;8.18;;;;;;;17.71;87.76;96122.44;2115176;28;20044;-58
2023/06/22 04:32:21;;;;;;;15.55;9.23;;;;;;;17.83;86.98;96138.16;2105349;28;20051;-59
2023/06/22 04:33:23;;;;;;;18.23;8.68;;;;;;;17.82;87.10;96127.75;2105727;28;20464;-58
2023/06/22 04:34:26;;;;;;;11.52;8.20;;;;;;;17.77;86.69;96122.81;2114379;28;20052;-58
2023/06/22 04:35:28;;;;;;;17.15;8.70;;;;;;;17.87;86.56;96137.94;2115546;28;20047;-59
2023/06/22 04:36:30;;;;;;;15.93;8.57;;;;;;;17.91;86.71;96134.13;2114388;28;20043;-58
2023/06/22 04:37:32;;;;;;;15.48;8.48;;;;;;;17.96;86.05;96137.25;2114195;28;20051;-58
2023/06/22 04:38:33;;;;;;;16.58;8.80;;;;;;;17.95;86.19;96136.41;2115317;28;20040;-58
2023/06/22 04:39:34;;;;;;;15.45;8.35;;;;;;;17.95;86.18;96132.94;2114445;28;20055;-58
2023/06/22 04:40:35;;;;;;;15.30;8.52;;;;;;;17.88;86.19;96118.59;2114564;28;20051;-58
2023/06/22 04:41:43;;;;;;;18.25;10.15;;;;;;;17.90;86.12;96129.81;2115437;28;20044;-58
2023/06/22 04:42:51;;;;;;;14.57;8.60;;;;;;;17.99;85.83;96127.34;2113869;28;20494;-58
2023/06/22 04:43:53;;;;;;;16.10;9.18;;;;;;;18.08;85.40;96136.34;2115319;28;20114;-58
2023/06/22 04:44:54;;;;;;;18.20;9.90;;;;;;;18.11;85.24;96136.09;2114353;28;20051;-58
2023/06/22 04:46:03;;;;;;;16.77;10.05;;;;;;;18.13;85.18;96134.19;2115023;28;20376;-58
2023/06/22 04:47:04;;;;;;;20.55;9.43;;;;;;;18.15;84.92;96134.94;2114075;28;20047;-58
2023/06/22 04:48:05;;;;;;;20.15;10.00;;;;;;;18.21;85.30;96142.34;2114472;28;20059;-58
2023/06/22 04:49:09;;;;;;;16.10;8.80;;;;;;;18.14;85.05;96127.97;2114863;28;20052;-58
2023/06/22 04:50:11;;;;;;;14.88;8.50;;;;;;;18.25;84.70;96150.81;2114919;28;20038;-58
2023/06/22 04:51:12;;;;;;;16.52;7.75;;;;;;;18.28;84.64;96146.19;2115202;28;20419;-58
2023/06/22 04:52:17;;;;;;;16.80;8.43;;;;;;;18.19;84.24;96133.72;2114288;28;20052;-58